Alder Grove, Washington
Current Conditions -  °F | °C
As of 6:20 PM on Saturday 20 Dec 2014 (Local Time) from KSHN Reporting Station
Light Rain Light Rain  
Wind Chill: 55°   Ceiling: 1800
Heat Index: 55°   Visibility: 7mi
Dew Point: 53°   Wind: 22mph
Humidity: 93%   Direction: 230°SW
Pressure: 29.45"   Gusts: 31mph
Location:  47.555°N, 123.746°W
Report Text: KSHN 210220Z AUTO 23019G27KT 7SM -RA SCT013 BKN018 OVC028 13/12 A2945 RMK AO2 PK WND 22030/0154 P0004 T01280117
Loading
Personal Weather Stations






























Interactive Weather Map New forecast layout! Learn more

10-Day Weather Forecast

Advertisements
Track Severe Weather on mobile